Latest Weather Observations for Spitfire Channel

IDQ60801

Issued at 2:35 am EST Tuesday 25 November 2014 (issued every 30 minutes, with the page automatically refreshed every 10 minutes)

About weather observations | Map of weather stations | Latest weather observations for QLD | Other Formats
Station Details ID: 040927 Name: SPITFIRE CHANNEL BEACON Lat: -27.05 Lon: 153.27 Height: 7.0 m
Data from the previous 72 hours. | See also: Recent months for locations in Queensland
Date/Time
EST
Temp
°C
App
Temp
°C
Dew
Point
Rel
Hum
%
Delta-T
°C
Wind Press
QNH
hPa
Press
MSL
hPa
Rain
since 9 am
mm
Dir
 
Spd
km/h
Gust
km/h
Spd
kts
Gust
kts
25/02:30am - - - - - NNW 30 37 16 20 - - -
25/02:00am - - - - - NNW 33 41 18 22 - - -
25/01:30am - - - - - NNW 37 43 20 23 - - -
25/01:00am - - - - - NNW 35 43 19 23 - - -
25/12:30am - - - - - NNW 39 46 21 25 - - -
25/12:00am - - - - - N 41 48 22 26 - - -
 
Date/Time
EST
Temp
°C
App
Temp
°C
Dew
Point
Rel
Hum
%
Delta-T
°C
Wind Press
QNH
hPa
Press
MSL
hPa
Rain
since 9 am
mm
Dir
 
Spd
km/h
Gust
km/h
Spd
kts
Gust
kts
24/11:30pm - - - - - N 37 46 20 25 - - -
24/11:00pm - - - - - N 39 46 21 25 - - -
24/10:30pm - - - - - N 41 48 22 26 - - -
24/10:00pm - - - - - N 41 50 22 27 - - -
24/09:30pm - - - - - N 41 48 22 26 - - -
24/09:00pm - - - - - N 41 48 22 26 - - -
24/08:30pm - - - - - N 41 48 22 26 - - -
24/08:00pm - - - - - N 39 46 21 25 - - -
24/07:30pm - - - - - N 39 48 21 26 - - -
24/07:00pm - - - - - N 41 52 22 28 - - -
24/06:30pm - - - - - N 39 46 21 25 - - -
24/06:00pm - - - - - N 41 46 22 25 - - -
24/05:30pm - - - - - N 39 46 21 25 - - -
24/05:00pm - - - - - N 39 44 21 24 - - -
24/04:30pm - - - - - N 37 46 20 25 - - -
24/04:00pm - - - - - N 35 43 19 23 - - -
24/03:30pm - - - - - N 37 41 20 22 - - -
24/03:00pm - - - - - N 35 41 19 22 - - -
24/02:30pm - - - - - N 35 43 19 23 - - -
24/02:00pm - - - - - N 33 41 18 22 - - -
24/01:30pm - - - - - N 33 41 18 22 - - -
24/01:00pm - - - - - N 35 41 19 22 - - -
24/12:30pm - - - - - N 32 37 17 20 - - -
24/12:00pm - - - - - N 28 33 15 18 - - -
24/11:30am - - - - - N 28 33 15 18 - - -
24/11:00am - - - - - N 24 32 13 17 - - -
24/10:30am - - - - - N 24 30 13 16 - - -
24/10:00am - - - - - N 22 26 12 14 - - -
24/09:30am - - - - - N 19 22 10 12 - - -
24/09:00am - - - - - N 17 22 9 12 - - -
24/08:30am - - - - - NNW 15 19 8 10 - - -
24/08:00am - - - - - NNW 17 19 9 10 - - -
24/07:30am - - - - - NNW 17 20 9 11 - - -
24/07:00am - - - - - NNW 19 22 10 12 - - -
24/06:30am - - - - - NNW 24 28 13 15 - - -
24/06:00am - - - - - N 28 32 15 17 - - -
24/05:30am - - - - - NNW 28 35 15 19 - - -
24/05:00am - - - - - NNW 24 28 13 15 - - -
24/04:30am - - - - - NNW 26 35 14 19 - - -
24/04:00am - - - - - NNW 22 28 12 15 - - -
24/03:30am - - - - - NNW 20 26 11 14 - - -
24/03:00am - - - - - NNW 24 33 13 18 - - -
24/02:30am - - - - - NNW 22 28 12 15 - - -
24/02:00am - - - - - NNW 26 35 14 19 - - -
24/01:30am - - - - - N 30 35 16 19 - - -
24/01:00am - - - - - N 30 37 16 20 - - -
24/12:30am - - - - - N 28 35 15 19 - - -
24/12:00am - - - - - N 30 33 16 18 - - -
 
Date/Time
EST
Temp
°C
App
Temp
°C
Dew
Point
Rel
Hum
%
Delta-T
°C
Wind Press
QNH
hPa
Press
MSL
hPa
Rain
since 9 am
mm
Dir
 
Spd
km/h
Gust
km/h
Spd
kts
Gust
kts
23/11:30pm - - - - - N 30 35 16 19 - - -
23/11:00pm - - - - - N 30 37 16 20 - - -
23/10:30pm - - - - - N 30 37 16 20 - - -
23/10:00pm - - - - - N 32 39 17 21 - - -
23/09:30pm - - - - - N 33 39 18 21 - - -
23/09:00pm - - - - - N 32 37 17 20 - - -
23/08:30pm - - - - - N 30 33 16 18 - - -
23/08:00pm - - - - - N 30 37 16 20 - - -
23/07:30pm - - - - - N 30 35 16 19 - - -
23/07:00pm - - - - - N 30 37 16 20 - - -
23/06:30pm - - - - - N 33 37 18 20 - - -
23/06:00pm - - - - - N 33 37 18 20 - - -
23/05:30pm - - - - - N 35 39 19 21 - - -
23/05:00pm - - - - - N 32 39 17 21 - - -
23/04:30pm - - - - - N 35 43 19 23 - - -
23/04:00pm - - - - - N 35 43 19 23 - - -
23/03:30pm - - - - - N 35 43 19 23 - - -
23/03:00pm - - - - - N 32 37 17 20 - - -
23/02:30pm - - - - - N 35 41 19 22 - - -
23/02:00pm - - - - - N 33 39 18 21 - - -
23/01:30pm - - - - - N 33 39 18 21 - - -
23/01:00pm - - - - - N 30 37 16 20 - - -
23/12:30pm - - - - - N 30 35 16 19 - - -
23/12:00pm - - - - - N 26 32 14 17 - - -
23/11:30am - - - - - N 26 30 14 16 - - -
23/11:00am - - - - - N 24 28 13 15 - - -
23/10:30am - - - - - N 28 32 15 17 - - -
23/10:00am - - - - - N 28 32 15 17 - - -
23/09:30am - - - - - N 28 32 15 17 - - -
23/09:00am - - - - - N 24 30 13 16 - - -
23/08:30am - - - - - NNW 22 24 12 13 - - -
23/08:00am - - - - - NNW 22 26 12 14 - - -
23/07:30am - - - - - NNW 24 30 13 16 - - -
23/07:00am - - - - - NNW 24 28 13 15 - - -
23/06:30am - - - - - NNW 30 33 16 18 - - -
23/06:00am - - - - - NNW 26 30 14 16 - - -
23/05:30am - - - - - NNW 24 28 13 15 - - -
23/05:00am - - - - - NNW 26 30 14 16 - - -
23/04:30am - - - - - NNW 30 35 16 19 - - -
23/04:00am - - - - - NNW 32 37 17 20 - - -
23/03:30am - - - - - NNW 30 37 16 20 - - -
23/03:00am - - - - - NNW 35 41 19 22 - - -
23/02:30am - - - - - NNW 37 44 20 24 - - -
23/02:00am - - - - - NNW 35 39 19 21 - - -
23/01:30am - - - - - N 39 48 21 26 - - -
23/01:00am - - - - - N 37 44 20 24 - - -
23/12:30am - - - - - N 37 44 20 24 - - -
23/12:00am - - - - - N 35 43 19 23 - - -
 
Date/Time
EST
Temp
°C
App
Temp
°C
Dew
Point
Rel
Hum
%
Delta-T
°C
Wind Press
QNH
hPa
Press
MSL
hPa
Rain
since 9 am
mm
Dir
 
Spd
km/h
Gust
km/h
Spd
kts
Gust
kts
22/11:30pm - - - - - N 35 41 19 22 - - -
22/11:00pm - - - - - N 35 43 19 23 - - -
22/10:30pm - - - - - N 37 43 20 23 - - -
22/10:00pm - - - - - N 37 44 20 24 - - -
22/09:30pm - - - - - N 39 46 21 25 - - -
22/09:00pm - - - - - N 35 43 19 23 - - -
22/08:30pm - - - - - N 35 43 19 23 - - -
22/08:00pm - - - - - N 37 44 20 24 - - -
22/07:30pm - - - - - N 37 44 20 24 - - -
22/07:00pm - - - - - N 39 46 21 25 - - -
22/06:30pm - - - - - N 37 44 20 24 - - -
22/06:00pm - - - - - N 37 44 20 24 - - -
22/05:30pm - - - - - N 37 44 20 24 - - -
22/05:00pm - - - - - N 39 46 21 25 - - -
22/04:30pm - - - - - N 41 50 22 27 - - -
22/04:00pm - - - - - N 43 52 23 28 - - -
22/03:30pm - - - - - N 41 52 22 28 - - -
22/03:00pm - - - - - N 43 52 23 28 - - -
22/02:30pm - - - - - N 43 52 23 28 - - -
22/02:00pm - - - - - N 41 48 22 26 - - -
22/01:30pm - - - - - N 41 46 22 25 - - -
22/01:00pm - - - - - N 39 46 21 25 - - -
22/12:30pm - - - - - N 35 43 19 23 - - -
22/12:00pm - - - - - N 33 41 18 22 - - -
22/11:30am - - - - - N 32 39 17 21 - - -
22/11:00am - - - - - N 33 39 18 21 - - -
22/10:30am - - - - - N 32 39 17 21 - - -
22/10:00am - - - - - N 32 37 17 20 - - -
22/09:30am - - - - - N 30 35 16 19 - - -
22/09:00am - - - - - N 28 33 15 18 - - -
22/08:30am - - - - - N 28 32 15 17 - - -
22/08:00am - - - - - N 24 30 13 16 - - -
22/07:30am - - - - - NNW 26 32 14 17 - - -
22/07:00am - - - - - N 26 30 14 16 - - -
22/06:30am - - - - - N 28 33 15 18 - - -
22/06:00am - - - - - N 30 35 16 19 - - -
22/05:30am - - - - - NNW 28 32 15 17 - - -
22/05:00am - - - - - NNW 30 33 16 18 - - -
22/04:30am - - - - - NNW 28 32 15 17 - - -
22/04:00am - - - - - NNW 30 37 16 20 - - -
22/03:30am - - - - - NNW 35 43 19 23 - - -
22/03:00am - - - - - NNW 35 43 19 23 - - -

Other Formats:

Comma delimited format used in spreadsheet applications
http://www.bom.gov.au/fwo/IDQ60801/IDQ60801.94581.axf

JavaScript Object Notation format (JSON) in row-major order
http://www.bom.gov.au/fwo/IDQ60801/IDQ60801.94581.json